sensor_id;sensor_type;location;lat;lon;timestamp;temperature;humidity
17421;DHT22;8828;48.800;9.540;2022-07-09T00:00:00;17.80;96.80
17421;DHT22;8828;48.800;9.540;2022-07-09T00:02:28;17.80;96.80
17421;DHT22;8828;48.800;9.540;2022-07-09T00:04:58;17.80;96.80
17421;DHT22;8828;48.800;9.540;2022-07-09T00:07:32;17.80;96.80
17421;DHT22;8828;48.800;9.540;2022-07-09T00:10:00;17.80;96.90
17421;DHT22;8828;48.800;9.540;2022-07-09T00:12:28;17.70;97.00
17421;DHT22;8828;48.800;9.540;2022-07-09T00:14:56;17.70;97.00
17421;DHT22;8828;48.800;9.540;2022-07-09T00:17:24;17.70;97.10
17421;DHT22;8828;48.800;9.540;2022-07-09T00:19:53;17.60;97.10
17421;DHT22;8828;48.800;9.540;2022-07-09T00:22:22;17.60;97.20
17421;DHT22;8828;48.800;9.540;2022-07-09T00:24:50;17.60;97.20
17421;DHT22;8828;48.800;9.540;2022-07-09T00:27:18;17.60;97.30
17421;DHT22;8828;48.800;9.540;2022-07-09T00:29:46;17.50;97.50
17421;DHT22;8828;48.800;9.540;2022-07-09T00:32:15;17.50;97.30
17421;DHT22;8828;48.800;9.540;2022-07-09T00:34:43;17.40;97.40
17421;DHT22;8828;48.800;9.540;2022-07-09T00:37:11;17.40;97.50
17421;DHT22;8828;48.800;9.540;2022-07-09T00:39:40;17.30;97.60
17421;DHT22;8828;48.800;9.540;2022-07-09T00:42:10;17.30;97.70
17421;DHT22;8828;48.800;9.540;2022-07-09T00:44:38;17.30;97.80
17421;DHT22;8828;48.800;9.540;2022-07-09T00:47:07;17.30;97.80
17421;DHT22;8828;48.800;9.540;2022-07-09T00:49:37;17.20;97.90
17421;DHT22;8828;48.800;9.540;2022-07-09T00:52:07;17.20;98.00
17421;DHT22;8828;48.800;9.540;2022-07-09T00:54:37;17.20;98.30
17421;DHT22;8828;48.800;9.540;2022-07-09T00:57:08;17.10;97.90
17421;DHT22;8828;48.800;9.540;2022-07-09T00:59:37;17.10;97.90
17421;DHT22;8828;48.800;9.540;2022-07-09T01:02:06;17.10;97.90
17421;DHT22;8828;48.800;9.540;2022-07-09T01:04:35;17.10;97.90
17421;DHT22;8828;48.800;9.540;2022-07-09T01:07:03;17.10;98.20
17421;DHT22;8828;48.800;9.540;2022-07-09T01:09:32;17.00;98.00
17421;DHT22;8828;48.800;9.540;2022-07-09T01:12:01;17.00;98.10
17421;DHT22;8828;48.800;9.540;2022-07-09T01:14:30;17.00;98.50
17421;DHT22;8828;48.800;9.540;2022-07-09T01:16:59;17.00;98.10
17421;DHT22;8828;48.800;9.540;2022-07-09T01:19:28;17.00;98.20
17421;DHT22;8828;48.800;9.540;2022-07-09T01:21:58;17.00;98.20
17421;DHT22;8828;48.800;9.540;2022-07-09T01:24:32;16.90;98.30
17421;DHT22;8828;48.800;9.540;2022-07-09T01:27:00;17.00;98.30
17421;DHT22;8828;48.800;9.540;2022-07-09T01:29:29;17.00;98.30
17421;DHT22;8828;48.800;9.540;2022-07-09T01:31:57;16.80;98.30
17421;DHT22;8828;48.800;9.540;2022-07-09T01:34:25;16.80;98.40
17421;DHT22;8828;48.800;9.540;2022-07-09T01:36:53;16.90;98.40
17421;DHT22;8828;48.800;9.540;2022-07-09T01:39:22;16.80;98.40
17421;DHT22;8828;48.800;9.540;2022-07-09T01:41:50;16.80;98.50
17421;DHT22;8828;48.800;9.540;2022-07-09T01:44:18;16.70;98.50
17421;DHT22;8828;48.800;9.540;2022-07-09T01:46:46;16.70;98.60
17421;DHT22;8828;48.800;9.540;2022-07-09T01:49:14;16.70;98.70
17421;DHT22;8828;48.800;9.540;2022-07-09T01:51:42;16.70;98.70
17421;DHT22;8828;48.800;9.540;2022-07-09T01:54:10;16.60;98.80
17421;DHT22;8828;48.800;9.540;2022-07-09T01:56:39;16.60;98.90
17421;DHT22;8828;48.800;9.540;2022-07-09T01:59:07;16.50;98.90
17421;DHT22;8828;48.800;9.540;2022-07-09T02:01:35;16.50;98.90
17421;DHT22;8828;48.800;9.540;2022-07-09T02:04:03;16.50;98.90
17421;DHT22;8828;48.800;9.540;2022-07-09T02:06:31;16.40;99.00
17421;DHT22;8828;48.800;9.540;2022-07-09T02:08:59;16.40;99.10
17421;DHT22;8828;48.800;9.540;2022-07-09T02:11:27;16.40;99.20
17421;DHT22;8828;48.800;9.540;2022-07-09T02:13:56;16.40;99.20
17421;DHT22;8828;48.800;9.540;2022-07-09T02:16:25;16.40;99.20
17421;DHT22;8828;48.800;9.540;2022-07-09T02:18:53;16.30;99.50
17421;DHT22;8828;48.800;9.540;2022-07-09T02:21:21;16.30;99.10
17421;DHT22;8828;48.800;9.540;2022-07-09T02:23:48;16.30;99.30
17421;DHT22;8828;48.800;9.540;2022-07-09T02:26:17;16.20;99.30
17421;DHT22;8828;48.800;9.540;2022-07-09T02:28:45;16.20;99.40
17421;DHT22;8828;48.800;9.540;2022-07-09T02:31:14;16.20;99.40
17421;DHT22;8828;48.800;9.540;2022-07-09T02:33:42;16.20;99.40
17421;DHT22;8828;48.800;9.540;2022-07-09T02:36:10;16.20;99.40
17421;DHT22;8828;48.800;9.540;2022-07-09T02:38:38;16.20;99.40
17421;DHT22;8828;48.800;9.540;2022-07-09T02:41:06;16.20;99.40
17421;DHT22;8828;48.800;9.540;2022-07-09T02:43:34;16.20;99.40
17421;DHT22;8828;48.800;9.540;2022-07-09T02:46:02;16.10;99.50
17421;DHT22;8828;48.800;9.540;2022-07-09T02:48:32;16.10;99.50
17421;DHT22;8828;48.800;9.540;2022-07-09T02:51:00;16.10;99.40
17421;DHT22;8828;48.800;9.540;2022-07-09T02:53:29;16.10;99.30
17421;DHT22;8828;48.800;9.540;2022-07-09T02:55:57;16.10;99.30
17421;DHT22;8828;48.800;9.540;2022-07-09T02:58:25;16.00;99.40
17421;DHT22;8828;48.800;9.540;2022-07-09T03:00:52;16.00;99.60
17421;DHT22;8828;48.800;9.540;2022-07-09T03:03:20;16.00;99.60
17421;DHT22;8828;48.800;9.540;2022-07-09T03:05:51;16.00;99.60
17421;DHT22;8828;48.800;9.540;2022-07-09T03:08:19;16.00;99.60
17421;DHT22;8828;48.800;9.540;2022-07-09T03:10:48;16.00;99.70
17421;DHT22;8828;48.800;9.540;2022-07-09T03:13:16;15.90;99.80
17421;DHT22;8828;48.800;9.540;2022-07-09T03:15:44;15.90;99.80
17421;DHT22;8828;48.800;9.540;2022-07-09T03:18:12;15.90;99.80
17421;DHT22;8828;48.800;9.540;2022-07-09T03:20:40;15.90;99.80
17421;DHT22;8828;48.800;9.540;2022-07-09T03:23:09;15.80;99.80
17421;DHT22;8828;48.800;9.540;2022-07-09T03:25:39;15.80;99.90
17421;DHT22;8828;48.800;9.540;2022-07-09T03:28:07;15.80;99.90
17421;DHT22;8828;48.800;9.540;2022-07-09T03:30:36;15.80;99.90
17421;DHT22;8828;48.800;9.540;2022-07-09T03:33:04;15.80;99.90
17421;DHT22;8828;48.800;9.540;2022-07-09T03:35:32;15.80;99.90
17421;DHT22;8828;48.800;9.540;2022-07-09T03:38:00;15.80;99.90
17421;DHT22;8828;48.800;9.540;2022-07-09T03:40:29;15.90;99.90
17421;DHT22;8828;48.800;9.540;2022-07-09T03:42:58;15.90;99.90
17421;DHT22;8828;48.800;9.540;2022-07-09T03:45:25;15.90;99.90
17421;DHT22;8828;48.800;9.540;2022-07-09T03:47:53;15.80;99.90
17421;DHT22;8828;48.800;9.540;2022-07-09T03:50:21;15.80;99.90
17421;DHT22;8828;48.800;9.540;2022-07-09T03:52:49;15.90;99.90
17421;DHT22;8828;48.800;9.540;2022-07-09T03:55:17;15.80;99.90
17421;DHT22;8828;48.800;9.540;2022-07-09T03:57:47;15.80;99.90
17421;DHT22;8828;48.800;9.540;2022-07-09T04:00:15;15.80;99.90
17421;DHT22;8828;48.800;9.540;2022-07-09T04:02:43;15.80;99.90
17421;DHT22;8828;48.800;9.540;2022-07-09T04:05:11;15.80;99.90
17421;DHT22;8828;48.800;9.540;2022-07-09T04:07:38;15.80;99.90
17421;DHT22;8828;48.800;9.540;2022-07-09T04:10:07;15.80;99.90
17421;DHT22;8828;48.800;9.540;2022-07-09T04:12:35;15.70;99.90
17421;DHT22;8828;48.800;9.540;2022-07-09T04:15:05;15.70;99.90
17421;DHT22;8828;48.800;9.540;2022-07-09T04:17:33;15.70;99.90
17421;DHT22;8828;48.800;9.540;2022-07-09T04:20:02;15.70;99.90
17421;DHT22;8828;48.800;9.540;2022-07-09T04:22:30;15.70;99.90
17421;DHT22;8828;48.800;9.540;2022-07-09T04:24:58;15.80;99.90
17421;DHT22;8828;48.800;9.540;2022-07-09T04:27:26;15.80;99.90
17421;DHT22;8828;48.800;9.540;2022-07-09T04:29:54;15.80;99.90
17421;DHT22;8828;48.800;9.540;2022-07-09T04:32:23;15.70;99.90
17421;DHT22;8828;48.800;9.540;2022-07-09T04:34:51;15.80;99.90
17421;DHT22;8828;48.800;9.540;2022-07-09T04:37:19;15.80;99.90
17421;DHT22;8828;48.800;9.540;2022-07-09T04:39:47;15.80;99.90
17421;DHT22;8828;48.800;9.540;2022-07-09T04:42:15;15.80;99.90
17421;DHT22;8828;48.800;9.540;2022-07-09T04:44:43;15.80;99.90
17421;DHT22;8828;48.800;9.540;2022-07-09T04:47:11;15.80;99.90
17421;DHT22;8828;48.800;9.540;2022-07-09T04:49:40;15.80;99.90
17421;DHT22;8828;48.800;9.540;2022-07-09T04:52:08;15.70;99.90
17421;DHT22;8828;48.800;9.540;2022-07-09T04:54:36;15.70;99.90
17421;DHT22;8828;48.800;9.540;2022-07-09T04:57:05;15.70;99.90
17421;DHT22;8828;48.800;9.540;2022-07-09T04:59:33;15.70;99.90
17421;DHT22;8828;48.800;9.540;2022-07-09T05:02:02;15.70;99.90
17421;DHT22;8828;48.800;9.540;2022-07-09T05:04:30;15.70;99.90
17421;DHT22;8828;48.800;9.540;2022-07-09T05:06:59;15.70;99.90
17421;DHT22;8828;48.800;9.540;2022-07-09T05:09:27;15.70;99.90
17421;DHT22;8828;48.800;9.540;2022-07-09T05:11:55;15.70;99.90
17421;DHT22;8828;48.800;9.540;2022-07-09T05:14:23;15.70;99.90
17421;DHT22;8828;48.800;9.540;2022-07-09T05:16:51;15.70;99.90
17421;DHT22;8828;48.800;9.540;2022-07-09T05:19:18;15.80;99.90
17421;DHT22;8828;48.800;9.540;2022-07-09T05:21:46;15.80;99.90
17421;DHT22;8828;48.800;9.540;2022-07-09T05:24:16;15.90;99.90
17421;DHT22;8828;48.800;9.540;2022-07-09T05:26:44;15.90;99.90
17421;DHT22;8828;48.800;9.540;2022-07-09T05:29:12;15.90;99.90
17421;DHT22;8828;48.800;9.540;2022-07-09T05:31:40;16.00;99.90
17421;DHT22;8828;48.800;9.540;2022-07-09T05:34:08;16.00;99.90
17421;DHT22;8828;48.800;9.540;2022-07-09T05:36:36;16.00;99.90
17421;DHT22;8828;48.800;9.540;2022-07-09T05:39:05;16.10;99.90
17421;DHT22;8828;48.800;9.540;2022-07-09T05:41:35;16.10;99.90
17421;DHT22;8828;48.800;9.540;2022-07-09T05:44:03;16.20;99.90
17421;DHT22;8828;48.800;9.540;2022-07-09T05:46:31;16.20;99.90
17421;DHT22;8828;48.800;9.540;2022-07-09T05:48:59;16.30;99.90
17421;DHT22;8828;48.800;9.540;2022-07-09T05:51:27;16.30;99.90
17421;DHT22;8828;48.800;9.540;2022-07-09T05:53:55;16.30;99.90
17421;DHT22;8828;48.800;9.540;2022-07-09T05:56:23;16.30;99.90
17421;DHT22;8828;48.800;9.540;2022-07-09T05:58:52;16.40;99.90
17421;DHT22;8828;48.800;9.540;2022-07-09T06:01:20;16.40;99.90
17421;DHT22;8828;48.800;9.540;2022-07-09T06:03:53;16.40;99.90
17421;DHT22;8828;48.800;9.540;2022-07-09T06:06:21;16.50;99.90
17421;DHT22;8828;48.800;9.540;2022-07-09T06:08:49;16.50;99.90
17421;DHT22;8828;48.800;9.540;2022-07-09T06:11:17;16.50;99.90
17421;DHT22;8828;48.800;9.540;2022-07-09T06:13:45;16.50;99.90
17421;DHT22;8828;48.800;9.540;2022-07-09T06:16:14;16.60;99.90
17421;DHT22;8828;48.800;9.540;2022-07-09T06:18:43;16.60;99.90
17421;DHT22;8828;48.800;9.540;2022-07-09T06:21:11;16.70;99.90
17421;DHT22;8828;48.800;9.540;2022-07-09T06:23:39;16.70;99.90
17421;DHT22;8828;48.800;9.540;2022-07-09T06:26:07;16.80;99.90
17421;DHT22;8828;48.800;9.540;2022-07-09T06:28:36;16.90;99.90
17421;DHT22;8828;48.800;9.540;2022-07-09T06:31:04;16.90;99.90
17421;DHT22;8828;48.800;9.540;2022-07-09T06:33:34;17.00;99.90
17421;DHT22;8828;48.800;9.540;2022-07-09T06:36:02;17.00;99.90
17421;DHT22;8828;48.800;9.540;2022-07-09T06:38:30;17.00;99.90
17421;DHT22;8828;48.800;9.540;2022-07-09T06:40:58;17.10;99.90
17421;DHT22;8828;48.800;9.540;2022-07-09T06:43:26;17.20;99.90
17421;DHT22;8828;48.800;9.540;2022-07-09T06:45:54;17.30;99.90
17421;DHT22;8828;48.800;9.540;2022-07-09T06:48:22;17.30;99.90
17421;DHT22;8828;48.800;9.540;2022-07-09T06:50:52;17.40;99.90
17421;DHT22;8828;48.800;9.540;2022-07-09T06:53:20;17.50;99.90
17421;DHT22;8828;48.800;9.540;2022-07-09T06:55:48;17.50;99.90
17421;DHT22;8828;48.800;9.540;2022-07-09T06:58:16;17.60;99.90
17421;DHT22;8828;48.800;9.540;2022-07-09T07:00:43;17.70;99.90
17421;DHT22;8828;48.800;9.540;2022-07-09T07:03:12;17.80;99.90
17421;DHT22;8828;48.800;9.540;2022-07-09T07:05:39;17.90;99.90
17421;DHT22;8828;48.800;9.540;2022-07-09T07:08:09;18.00;99.90
17421;DHT22;8828;48.800;9.540;2022-07-09T07:10:37;18.10;99.90
17421;DHT22;8828;48.800;9.540;2022-07-09T07:13:09;18.10;99.90
17421;DHT22;8828;48.800;9.540;2022-07-09T07:15:37;18.20;99.90
17421;DHT22;8828;48.800;9.540;2022-07-09T07:18:05;18.20;99.90
17421;DHT22;8828;48.800;9.540;2022-07-09T07:20:33;18.30;99.90
17421;DHT22;8828;48.800;9.540;2022-07-09T07:23:01;18.30;99.90
17421;DHT22;8828;48.800;9.540;2022-07-09T07:25:30;18.30;99.90
17421;DHT22;8828;48.800;9.540;2022-07-09T07:27:58;18.30;99.90
17421;DHT22;8828;48.800;9.540;2022-07-09T07:30:27;18.40;99.90
17421;DHT22;8828;48.800;9.540;2022-07-09T07:32:59;18.40;99.90
17421;DHT22;8828;48.800;9.540;2022-07-09T07:35:27;18.40;99.90
17421;DHT22;8828;48.800;9.540;2022-07-09T07:37:55;18.40;99.90
17421;DHT22;8828;48.800;9.540;2022-07-09T07:40:23;18.40;99.90
17421;DHT22;8828;48.800;9.540;2022-07-09T07:42:53;18.50;99.90
17421;DHT22;8828;48.800;9.540;2022-07-09T07:45:21;18.50;99.90
17421;DHT22;8828;48.800;9.540;2022-07-09T07:47:49;18.60;99.90
17421;DHT22;8828;48.800;9.540;2022-07-09T07:50:17;18.70;99.90
17421;DHT22;8828;48.800;9.540;2022-07-09T07:52:45;18.70;99.90
17421;DHT22;8828;48.800;9.540;2022-07-09T07:55:13;18.70;99.90
17421;DHT22;8828;48.800;9.540;2022-07-09T07:57:41;18.80;99.90
17421;DHT22;8828;48.800;9.540;2022-07-09T08:00:12;18.80;99.90
17421;DHT22;8828;48.800;9.540;2022-07-09T08:02:40;18.90;99.90
17421;DHT22;8828;48.800;9.540;2022-07-09T08:05:08;18.90;99.90
17421;DHT22;8828;48.800;9.540;2022-07-09T08:07:36;19.00;99.90
17421;DHT22;8828;48.800;9.540;2022-07-09T08:10:05;19.10;99.90
17421;DHT22;8828;48.800;9.540;2022-07-09T08:12:33;19.10;99.90
17421;DHT22;8828;48.800;9.540;2022-07-09T08:15:01;19.20;99.90
17421;DHT22;8828;48.800;9.540;2022-07-09T08:17:31;19.30;99.90
17421;DHT22;8828;48.800;9.540;2022-07-09T08:19:59;19.40;99.90
17421;DHT22;8828;48.800;9.540;2022-07-09T08:22:27;19.40;99.90
17421;DHT22;8828;48.800;9.540;2022-07-09T08:24:55;19.50;99.90
17421;DHT22;8828;48.800;9.540;2022-07-09T08:27:23;19.60;99.90
17421;DHT22;8828;48.800;9.540;2022-07-09T08:29:51;19.70;99.90
17421;DHT22;8828;48.800;9.540;2022-07-09T08:32:19;19.70;99.90
17421;DHT22;8828;48.800;9.540;2022-07-09T08:34:48;19.70;99.90
17421;DHT22;8828;48.800;9.540;2022-07-09T08:37:16;19.80;99.90
17421;DHT22;8828;48.800;9.540;2022-07-09T08:39:44;19.90;99.90
17421;DHT22;8828;48.800;9.540;2022-07-09T08:42:12;19.90;99.90
17421;DHT22;8828;48.800;9.540;2022-07-09T08:44:40;20.00;99.90
17421;DHT22;8828;48.800;9.540;2022-07-09T08:47:10;20.00;99.90
17421;DHT22;8828;48.800;9.540;2022-07-09T08:49:39;20.10;99.90
17421;DHT22;8828;48.800;9.540;2022-07-09T08:52:08;20.20;99.90
17421;DHT22;8828;48.800;9.540;2022-07-09T08:54:37;20.20;99.90
17421;DHT22;8828;48.800;9.540;2022-07-09T08:57:05;20.30;99.90
17421;DHT22;8828;48.800;9.540;2022-07-09T08:59:33;20.30;99.90
17421;DHT22;8828;48.800;9.540;2022-07-09T09:02:04;20.40;99.90
17421;DHT22;8828;48.800;9.540;2022-07-09T09:04:32;20.40;99.40
17421;DHT22;8828;48.800;9.540;2022-07-09T09:07:13;20.40;99.10
17421;DHT22;8828;48.800;9.540;2022-07-09T09:09:41;20.50;99.10
17421;DHT22;8828;48.800;9.540;2022-07-09T09:12:10;20.50;98.80
17421;DHT22;8828;48.800;9.540;2022-07-09T09:14:39;20.50;98.70
17421;DHT22;8828;48.800;9.540;2022-07-09T09:17:08;20.60;98.80
17421;DHT22;8828;48.800;9.540;2022-07-09T09:19:38;20.60;99.10
17421;DHT22;8828;48.800;9.540;2022-07-09T09:22:07;20.80;99.60
17421;DHT22;8828;48.800;9.540;2022-07-09T09:24:36;20.80;99.40
17421;DHT22;8828;48.800;9.540;2022-07-09T09:27:05;20.80;99.00
17421;DHT22;8828;48.800;9.540;2022-07-09T09:29:34;20.90;99.00
17421;DHT22;8828;48.800;9.540;2022-07-09T09:32:09;21.00;99.20
17421;DHT22;8828;48.800;9.540;2022-07-09T09:34:37;21.00;99.10
17421;DHT22;8828;48.800;9.540;2022-07-09T09:37:07;21.10;98.30
17421;DHT22;8828;48.800;9.540;2022-07-09T09:39:38;21.10;98.60
17421;DHT22;8828;48.800;9.540;2022-07-09T09:42:17;21.20;98.20
17421;DHT22;8828;48.800;9.540;2022-07-09T09:44:49;21.20;98.00
17421;DHT22;8828;48.800;9.540;2022-07-09T09:47:20;21.20;97.70
17421;DHT22;8828;48.800;9.540;2022-07-09T09:49:50;21.20;97.40
17421;DHT22;8828;48.800;9.540;2022-07-09T09:52:19;21.30;97.60
17421;DHT22;8828;48.800;9.540;2022-07-09T09:54:51;21.30;96.90
17421;DHT22;8828;48.800;9.540;2022-07-09T09:57:21;21.30;97.10
17421;DHT22;8828;48.800;9.540;2022-07-09T09:59:51;21.30;97.00
17421;DHT22;8828;48.800;9.540;2022-07-09T10:02:21;21.40;97.80
17421;DHT22;8828;48.800;9.540;2022-07-09T10:04:49;21.40;97.30
17421;DHT22;8828;48.800;9.540;2022-07-09T10:07:17;21.50;97.80
17421;DHT22;8828;48.800;9.540;2022-07-09T10:09:54;21.50;97.90
17421;DHT22;8828;48.800;9.540;2022-07-09T10:12:27;21.60;97.40
17421;DHT22;8828;48.800;9.540;2022-07-09T10:14:55;21.60;97.70
17421;DHT22;8828;48.800;9.540;2022-07-09T10:17:25;21.70;97.50
17421;DHT22;8828;48.800;9.540;2022-07-09T10:19:54;21.70;97.80
17421;DHT22;8828;48.800;9.540;2022-07-09T10:22:35;21.80;97.20
17421;DHT22;8828;48.800;9.540;2022-07-09T10:25:28;21.80;95.90
17421;DHT22;8828;48.800;9.540;2022-07-09T10:27:56;21.80;95.60
17421;DHT22;8828;48.800;9.540;2022-07-09T10:30:25;21.90;95.70
17421;DHT22;8828;48.800;9.540;2022-07-09T10:33:02;22.00;96.30
17421;DHT22;8828;48.800;9.540;2022-07-09T10:35:31;22.00;95.70
17421;DHT22;8828;48.800;9.540;2022-07-09T10:37:59;22.10;96.10
17421;DHT22;8828;48.800;9.540;2022-07-09T10:40:38;22.10;95.70
17421;DHT22;8828;48.800;9.540;2022-07-09T10:43:06;22.20;95.50
17421;DHT22;8828;48.800;9.540;2022-07-09T10:45:39;22.20;95.30
17421;DHT22;8828;48.800;9.540;2022-07-09T10:48:08;22.30;95.10
17421;DHT22;8828;48.800;9.540;2022-07-09T10:50:39;22.40;95.50
17421;DHT22;8828;48.800;9.540;2022-07-09T10:53:08;22.40;95.30
17421;DHT22;8828;48.800;9.540;2022-07-09T10:55:41;22.50;95.90
17421;DHT22;8828;48.800;9.540;2022-07-09T10:58:16;22.50;95.90
17421;DHT22;8828;48.800;9.540;2022-07-09T11:00:44;22.50;95.00
17421;DHT22;8828;48.800;9.540;2022-07-09T11:03:12;22.50;94.50
17421;DHT22;8828;48.800;9.540;2022-07-09T11:05:44;22.40;94.50
17421;DHT22;8828;48.800;9.540;2022-07-09T11:08:12;22.40;94.30
17421;DHT22;8828;48.800;9.540;2022-07-09T11:10:42;22.50;94.00
17421;DHT22;8828;48.800;9.540;2022-07-09T11:13:16;22.50;94.20
17421;DHT22;8828;48.800;9.540;2022-07-09T11:15:44;22.60;94.80
17421;DHT22;8828;48.800;9.540;2022-07-09T11:18:13;22.60;94.10
17421;DHT22;8828;48.800;9.540;2022-07-09T11:20:42;22.60;93.70
17421;DHT22;8828;48.800;9.540;2022-07-09T11:23:12;22.60;93.60
17421;DHT22;8828;48.800;9.540;2022-07-09T11:25:42;22.50;93.60
17421;DHT22;8828;48.800;9.540;2022-07-09T11:28:18;22.50;93.80
17421;DHT22;8828;48.800;9.540;2022-07-09T11:30:57;22.40;93.60
17421;DHT22;8828;48.800;9.540;2022-07-09T11:33:25;22.50;94.40
17421;DHT22;8828;48.800;9.540;2022-07-09T11:35:53;22.60;94.50
17421;DHT22;8828;48.800;9.540;2022-07-09T11:38:21;22.60;94.20
17421;DHT22;8828;48.800;9.540;2022-07-09T11:41:00;22.70;92.20
17421;DHT22;8828;48.800;9.540;2022-07-09T11:43:28;22.80;93.30
17421;DHT22;8828;48.800;9.540;2022-07-09T11:45:56;22.90;93.40
17421;DHT22;8828;48.800;9.540;2022-07-09T11:48:24;23.00;93.00
17421;DHT22;8828;48.800;9.540;2022-07-09T11:50:52;23.00;93.10
17421;DHT22;8828;48.800;9.540;2022-07-09T11:53:21;23.00;92.40
17421;DHT22;8828;48.800;9.540;2022-07-09T11:56:00;23.10;91.90
17421;DHT22;8828;48.800;9.540;2022-07-09T11:58:28;23.20;92.00
17421;DHT22;8828;48.800;9.540;2022-07-09T12:00:56;23.20;91.00
17421;DHT22;8828;48.800;9.540;2022-07-09T12:03:27;23.20;90.90
17421;DHT22;8828;48.800;9.540;2022-07-09T12:05:57;23.10;91.10
17421;DHT22;8828;48.800;9.540;2022-07-09T12:08:29;23.10;91.10
17421;DHT22;8828;48.800;9.540;2022-07-09T12:11:00;23.10;91.60
17421;DHT22;8828;48.800;9.540;2022-07-09T12:13:28;23.10;92.00
17421;DHT22;8828;48.800;9.540;2022-07-09T12:15:56;23.20;92.20
17421;DHT22;8828;48.800;9.540;2022-07-09T12:18:24;23.30;92.20
17421;DHT22;8828;48.800;9.540;2022-07-09T12:20:52;23.30;92.20
17421;DHT22;8828;48.800;9.540;2022-07-09T12:23:20;23.30;91.60
17421;DHT22;8828;48.800;9.540;2022-07-09T12:25:48;23.30;91.10
17421;DHT22;8828;48.800;9.540;2022-07-09T12:28:18;23.30;91.30
17421;DHT22;8828;48.800;9.540;2022-07-09T12:30:46;23.30;90.40
17421;DHT22;8828;48.800;9.540;2022-07-09T12:33:14;23.40;91.10
17421;DHT22;8828;48.800;9.540;2022-07-09T12:35:42;23.40;90.90
17421;DHT22;8828;48.800;9.540;2022-07-09T12:38:10;23.40;91.10
17421;DHT22;8828;48.800;9.540;2022-07-09T12:40:38;23.40;91.30
17421;DHT22;8828;48.800;9.540;2022-07-09T12:43:06;23.50;91.40
17421;DHT22;8828;48.800;9.540;2022-07-09T12:45:35;23.50;91.80
17421;DHT22;8828;48.800;9.540;2022-07-09T12:48:04;23.60;92.00
17421;DHT22;8828;48.800;9.540;2022-07-09T12:50:32;23.70;92.10
17421;DHT22;8828;48.800;9.540;2022-07-09T12:53:00;23.80;91.90
17421;DHT22;8828;48.800;9.540;2022-07-09T12:55:28;23.90;91.70
17421;DHT22;8828;48.800;9.540;2022-07-09T12:58:16;23.90;91.70
17421;DHT22;8828;48.800;9.540;2022-07-09T13:00:45;23.90;91.80
17421;DHT22;8828;48.800;9.540;2022-07-09T13:03:13;24.00;91.90
17421;DHT22;8828;48.800;9.540;2022-07-09T13:05:41;24.00;91.40
17421;DHT22;8828;48.800;9.540;2022-07-09T13:08:09;24.00;91.20
17421;DHT22;8828;48.800;9.540;2022-07-09T13:10:37;24.10;91.20
17421;DHT22;8828;48.800;9.540;2022-07-09T13:13:05;24.10;91.00
17421;DHT22;8828;48.800;9.540;2022-07-09T13:15:33;24.10;91.50
17421;DHT22;8828;48.800;9.540;2022-07-09T13:18:03;24.00;91.50
17421;DHT22;8828;48.800;9.540;2022-07-09T13:20:31;24.00;91.00
17421;DHT22;8828;48.800;9.540;2022-07-09T13:23:08;23.90;90.40
17421;DHT22;8828;48.800;9.540;2022-07-09T13:25:36;23.90;90.60
17421;DHT22;8828;48.800;9.540;2022-07-09T13:28:04;23.90;90.00
17421;DHT22;8828;48.800;9.540;2022-07-09T13:30:32;23.80;89.60
17421;DHT22;8828;48.800;9.540;2022-07-09T13:33:00;23.80;90.20
17421;DHT22;8828;48.800;9.540;2022-07-09T13:35:30;23.80;90.90
17421;DHT22;8828;48.800;9.540;2022-07-09T13:37:57;23.80;90.60
17421;DHT22;8828;48.800;9.540;2022-07-09T13:40:25;23.80;90.60
17421;DHT22;8828;48.800;9.540;2022-07-09T13:42:53;23.80;89.30
17421;DHT22;8828;48.800;9.540;2022-07-09T13:45:21;23.80;90.10
17421;DHT22;8828;48.800;9.540;2022-07-09T13:47:49;23.80;89.50
17421;DHT22;8828;48.800;9.540;2022-07-09T13:50:17;23.70;89.50
17421;DHT22;8828;48.800;9.540;2022-07-09T13:52:48;23.70;88.20
17421;DHT22;8828;48.800;9.540;2022-07-09T13:55:15;23.70;89.30
17421;DHT22;8828;48.800;9.540;2022-07-09T13:57:43;23.60;88.70
17421;DHT22;8828;48.800;9.540;2022-07-09T14:00:12;23.60;88.40
17421;DHT22;8828;48.800;9.540;2022-07-09T14:02:40;23.50;89.10
17421;DHT22;8828;48.800;9.540;2022-07-09T14:05:08;23.50;90.00
17421;DHT22;8828;48.800;9.540;2022-07-09T14:07:37;23.50;89.40
17421;DHT22;8828;48.800;9.540;2022-07-09T14:10:07;23.60;89.70
17421;DHT22;8828;48.800;9.540;2022-07-09T14:12:35;23.60;90.00
17421;DHT22;8828;48.800;9.540;2022-07-09T14:15:03;23.70;88.70
17421;DHT22;8828;48.800;9.540;2022-07-09T14:17:31;23.70;88.90
17421;DHT22;8828;48.800;9.540;2022-07-09T14:19:59;23.80;88.70
17421;DHT22;8828;48.800;9.540;2022-07-09T14:22:27;23.90;88.20
17421;DHT22;8828;48.800;9.540;2022-07-09T14:24:55;23.90;88.30
17421;DHT22;8828;48.800;9.540;2022-07-09T14:27:24;23.90;88.10
17421;DHT22;8828;48.800;9.540;2022-07-09T14:29:53;24.00;87.80
17421;DHT22;8828;48.800;9.540;2022-07-09T14:32:21;24.00;86.70
17421;DHT22;8828;48.800;9.540;2022-07-09T14:34:49;24.00;87.80
17421;DHT22;8828;48.800;9.540;2022-07-09T14:37:17;24.10;87.50
17421;DHT22;8828;48.800;9.540;2022-07-09T14:39:46;24.10;86.80
17421;DHT22;8828;48.800;9.540;2022-07-09T14:42:14;24.20;87.50
17421;DHT22;8828;48.800;9.540;2022-07-09T14:44:43;24.20;87.70
17421;DHT22;8828;48.800;9.540;2022-07-09T14:47:12;24.30;86.30
17421;DHT22;8828;48.800;9.540;2022-07-09T14:49:46;24.30;86.90
17421;DHT22;8828;48.800;9.540;2022-07-09T14:52:15;24.40;86.20
17421;DHT22;8828;48.800;9.540;2022-07-09T14:54:43;24.40;86.10
17421;DHT22;8828;48.800;9.540;2022-07-09T14:57:11;24.40;85.20
17421;DHT22;8828;48.800;9.540;2022-07-09T14:59:39;24.50;85.80
17421;DHT22;8828;48.800;9.540;2022-07-09T15:02:10;24.50;86.70
17421;DHT22;8828;48.800;9.540;2022-07-09T15:04:39;24.50;87.20
17421;DHT22;8828;48.800;9.540;2022-07-09T15:07:07;24.50;87.30
17421;DHT22;8828;48.800;9.540;2022-07-09T15:09:35;24.50;87.30
17421;DHT22;8828;48.800;9.540;2022-07-09T15:12:03;24.50;88.10
17421;DHT22;8828;48.800;9.540;2022-07-09T15:14:32;24.50;87.80
17421;DHT22;8828;48.800;9.540;2022-07-09T15:17:00;24.40;87.60
17421;DHT22;8828;48.800;9.540;2022-07-09T15:19:30;24.40;89.60
17421;DHT22;8828;48.800;9.540;2022-07-09T15:21:58;24.40;89.40
17421;DHT22;8828;48.800;9.540;2022-07-09T15:24:26;24.40;88.40
17421;DHT22;8828;48.800;9.540;2022-07-09T15:26:55;24.40;87.60
17421;DHT22;8828;48.800;9.540;2022-07-09T15:29:23;24.30;86.50
17421;DHT22;8828;48.800;9.540;2022-07-09T15:31:59;24.30;87.20
17421;DHT22;8828;48.800;9.540;2022-07-09T15:34:27;24.30;87.70
17421;DHT22;8828;48.800;9.540;2022-07-09T15:36:56;24.30;88.20
17421;DHT22;8828;48.800;9.540;2022-07-09T15:39:27;24.30;88.70
17421;DHT22;8828;48.800;9.540;2022-07-09T15:41:55;24.20;88.20
17421;DHT22;8828;48.800;9.540;2022-07-09T15:44:23;24.20;89.00
17421;DHT22;8828;48.800;9.540;2022-07-09T15:46:51;24.20;88.80
17421;DHT22;8828;48.800;9.540;2022-07-09T15:49:20;24.20;89.80
17421;DHT22;8828;48.800;9.540;2022-07-09T15:51:49;24.20;89.20
17421;DHT22;8828;48.800;9.540;2022-07-09T15:54:18;24.10;89.30